sensor_id;sensor_type;location;lat;lon;timestamp;temperature;humidity
12726;DHT22;6427;49.754;6.106;2023-07-08T00:01:01;20.10;94.40
12726;DHT22;6427;49.754;6.106;2023-07-08T00:03:29;20.20;94.40
12726;DHT22;6427;49.754;6.106;2023-07-08T00:05:58;20.10;94.40
12726;DHT22;6427;49.754;6.106;2023-07-08T00:08:25;20.00;94.30
12726;DHT22;6427;49.754;6.106;2023-07-08T00:10:53;19.90;94.60
12726;DHT22;6427;49.754;6.106;2023-07-08T00:13:20;19.90;94.90
12726;DHT22;6427;49.754;6.106;2023-07-08T00:15:48;19.80;95.20
12726;DHT22;6427;49.754;6.106;2023-07-08T00:18:16;19.70;95.40
12726;DHT22;6427;49.754;6.106;2023-07-08T00:20:46;19.60;95.60
12726;DHT22;6427;49.754;6.106;2023-07-08T00:23:13;19.50;95.70
12726;DHT22;6427;49.754;6.106;2023-07-08T00:25:42;19.40;96.10
12726;DHT22;6427;49.754;6.106;2023-07-08T00:28:16;19.30;96.20
12726;DHT22;6427;49.754;6.106;2023-07-08T00:30:44;19.30;96.30
12726;DHT22;6427;49.754;6.106;2023-07-08T00:33:12;19.30;96.30
12726;DHT22;6427;49.754;6.106;2023-07-08T00:35:40;19.20;96.40
12726;DHT22;6427;49.754;6.106;2023-07-08T00:38:14;19.20;96.60
12726;DHT22;6427;49.754;6.106;2023-07-08T00:40:50;19.10;96.80
12726;DHT22;6427;49.754;6.106;2023-07-08T00:43:09;19.00;97.20
12726;DHT22;6427;49.754;6.106;2023-07-08T00:45:50;19.00;97.10
12726;DHT22;6427;49.754;6.106;2023-07-08T00:50:46;19.00;97.50
12726;DHT22;6427;49.754;6.106;2023-07-08T00:53:23;18.90;97.60
12726;DHT22;6427;49.754;6.106;2023-07-08T00:55:51;18.90;97.70
12726;DHT22;6427;49.754;6.106;2023-07-08T00:58:18;18.80;98.00
12726;DHT22;6427;49.754;6.106;2023-07-08T01:00:45;19.00;98.80
12726;DHT22;6427;49.754;6.106;2023-07-08T01:03:13;19.00;98.40
12726;DHT22;6427;49.754;6.106;2023-07-08T01:05:41;18.90;98.60
12726;DHT22;6427;49.754;6.106;2023-07-08T01:08:08;18.80;98.80
12726;DHT22;6427;49.754;6.106;2023-07-08T01:10:42;18.80;99.00
12726;DHT22;6427;49.754;6.106;2023-07-08T01:13:07;18.70;99.40
12726;DHT22;6427;49.754;6.106;2023-07-08T01:15:39;18.70;99.50
12726;DHT22;6427;49.754;6.106;2023-07-08T01:18:05;18.60;99.60
12726;DHT22;6427;49.754;6.106;2023-07-08T01:20:32;18.50;99.90
12726;DHT22;6427;49.754;6.106;2023-07-08T01:23:00;18.50;99.90
12726;DHT22;6427;49.754;6.106;2023-07-08T01:25:27;18.40;99.90
12726;DHT22;6427;49.754;6.106;2023-07-08T01:27:55;18.40;99.90
12726;DHT22;6427;49.754;6.106;2023-07-08T01:30:23;18.30;99.90
12726;DHT22;6427;49.754;6.106;2023-07-08T01:33:02;18.30;99.90
12726;DHT22;6427;49.754;6.106;2023-07-08T01:35:18;18.30;99.90
12726;DHT22;6427;49.754;6.106;2023-07-08T01:37:50;18.50;99.90
12726;DHT22;6427;49.754;6.106;2023-07-08T01:42:47;18.60;99.90
12726;DHT22;6427;49.754;6.106;2023-07-08T01:45:16;18.50;99.90
12726;DHT22;6427;49.754;6.106;2023-07-08T01:47:43;18.40;99.90
12726;DHT22;6427;49.754;6.106;2023-07-08T01:50:11;18.70;99.90
12726;DHT22;6427;49.754;6.106;2023-07-08T01:52:38;18.70;99.90
12726;DHT22;6427;49.754;6.106;2023-07-08T01:55:07;18.70;99.90
12726;DHT22;6427;49.754;6.106;2023-07-08T01:57:34;18.70;99.90
12726;DHT22;6427;49.754;6.106;2023-07-08T02:00:02;18.50;99.90
12726;DHT22;6427;49.754;6.106;2023-07-08T02:02:30;18.60;99.90
12726;DHT22;6427;49.754;6.106;2023-07-08T02:04:58;18.50;99.90
12726;DHT22;6427;49.754;6.106;2023-07-08T02:07:25;18.40;99.90
12726;DHT22;6427;49.754;6.106;2023-07-08T02:09:53;18.30;99.90
12726;DHT22;6427;49.754;6.106;2023-07-08T02:12:21;18.10;99.90
12726;DHT22;6427;49.754;6.106;2023-07-08T02:14:50;18.00;99.90
12726;DHT22;6427;49.754;6.106;2023-07-08T02:17:17;18.00;99.90
12726;DHT22;6427;49.754;6.106;2023-07-08T02:19:45;17.90;99.90
12726;DHT22;6427;49.754;6.106;2023-07-08T02:22:12;17.80;99.90
12726;DHT22;6427;49.754;6.106;2023-07-08T02:24:40;17.80;99.90
12726;DHT22;6427;49.754;6.106;2023-07-08T02:27:08;17.70;99.90
12726;DHT22;6427;49.754;6.106;2023-07-08T02:29:36;17.70;99.90
12726;DHT22;6427;49.754;6.106;2023-07-08T02:32:04;17.90;99.90
12726;DHT22;6427;49.754;6.106;2023-07-08T02:34:32;17.90;99.90
12726;DHT22;6427;49.754;6.106;2023-07-08T02:36:59;17.90;99.90
12726;DHT22;6427;49.754;6.106;2023-07-08T02:39:27;17.80;99.90
12726;DHT22;6427;49.754;6.106;2023-07-08T02:41:55;17.70;99.90
12726;DHT22;6427;49.754;6.106;2023-07-08T02:44:22;17.70;99.90
12726;DHT22;6427;49.754;6.106;2023-07-08T02:46:51;17.80;99.90
12726;DHT22;6427;49.754;6.106;2023-07-08T02:49:19;17.70;99.90
12726;DHT22;6427;49.754;6.106;2023-07-08T02:51:46;17.70;99.90
12726;DHT22;6427;49.754;6.106;2023-07-08T02:54:14;17.70;99.90
12726;DHT22;6427;49.754;6.106;2023-07-08T02:56:42;17.90;99.90
12726;DHT22;6427;49.754;6.106;2023-07-08T02:59:09;17.80;99.90
12726;DHT22;6427;49.754;6.106;2023-07-08T03:01:37;17.80;99.90
12726;DHT22;6427;49.754;6.106;2023-07-08T03:04:04;17.70;99.90
12726;DHT22;6427;49.754;6.106;2023-07-08T03:06:32;17.70;99.90
12726;DHT22;6427;49.754;6.106;2023-07-08T03:09:00;17.60;99.90
12726;DHT22;6427;49.754;6.106;2023-07-08T03:11:27;17.60;99.90
12726;DHT22;6427;49.754;6.106;2023-07-08T03:13:55;17.50;99.90
12726;DHT22;6427;49.754;6.106;2023-07-08T03:16:22;17.50;99.90
12726;DHT22;6427;49.754;6.106;2023-07-08T03:18:51;17.50;99.90
12726;DHT22;6427;49.754;6.106;2023-07-08T03:21:18;17.40;99.90
12726;DHT22;6427;49.754;6.106;2023-07-08T03:23:47;17.40;99.90
12726;DHT22;6427;49.754;6.106;2023-07-08T03:26:18;17.40;99.90
12726;DHT22;6427;49.754;6.106;2023-07-08T03:28:42;17.40;99.90
12726;DHT22;6427;49.754;6.106;2023-07-08T03:31:10;17.30;99.90
12726;DHT22;6427;49.754;6.106;2023-07-08T03:33:37;17.30;99.90
12726;DHT22;6427;49.754;6.106;2023-07-08T03:36:08;17.30;99.90
12726;DHT22;6427;49.754;6.106;2023-07-08T03:38:32;17.30;99.90
12726;DHT22;6427;49.754;6.106;2023-07-08T03:41:00;17.60;99.90
12726;DHT22;6427;49.754;6.106;2023-07-08T03:43:27;17.60;99.90
12726;DHT22;6427;49.754;6.106;2023-07-08T03:45:55;17.50;99.90
12726;DHT22;6427;49.754;6.106;2023-07-08T03:48:23;17.50;99.90
12726;DHT22;6427;49.754;6.106;2023-07-08T03:50:50;17.70;99.90
12726;DHT22;6427;49.754;6.106;2023-07-08T03:53:19;17.60;99.90
12726;DHT22;6427;49.754;6.106;2023-07-08T03:55:46;17.60;99.90
12726;DHT22;6427;49.754;6.106;2023-07-08T03:58:14;17.50;99.90
12726;DHT22;6427;49.754;6.106;2023-07-08T04:00:41;17.50;99.90
12726;DHT22;6427;49.754;6.106;2023-07-08T04:03:10;17.40;99.90
12726;DHT22;6427;49.754;6.106;2023-07-08T04:05:37;17.40;99.90
12726;DHT22;6427;49.754;6.106;2023-07-08T04:08:05;17.40;99.90
12726;DHT22;6427;49.754;6.106;2023-07-08T04:10:33;17.30;99.90
12726;DHT22;6427;49.754;6.106;2023-07-08T04:13:00;17.30;99.90
12726;DHT22;6427;49.754;6.106;2023-07-08T04:15:28;17.30;99.90
12726;DHT22;6427;49.754;6.106;2023-07-08T04:17:55;17.30;99.90
12726;DHT22;6427;49.754;6.106;2023-07-08T04:20:23;17.30;99.90
12726;DHT22;6427;49.754;6.106;2023-07-08T04:22:50;17.30;99.90
12726;DHT22;6427;49.754;6.106;2023-07-08T04:25:18;17.20;99.90
12726;DHT22;6427;49.754;6.106;2023-07-08T04:27:46;17.20;99.90
12726;DHT22;6427;49.754;6.106;2023-07-08T04:30:20;17.20;99.90
12726;DHT22;6427;49.754;6.106;2023-07-08T04:32:41;17.40;99.90
12726;DHT22;6427;49.754;6.106;2023-07-08T04:35:08;17.40;99.90
12726;DHT22;6427;49.754;6.106;2023-07-08T04:37:36;17.40;99.90
12726;DHT22;6427;49.754;6.106;2023-07-08T04:40:04;17.30;99.90
12726;DHT22;6427;49.754;6.106;2023-07-08T04:42:31;17.60;99.90
12726;DHT22;6427;49.754;6.106;2023-07-08T04:45:00;17.50;99.90
12726;DHT22;6427;49.754;6.106;2023-07-08T04:47:28;17.50;99.90
12726;DHT22;6427;49.754;6.106;2023-07-08T04:49:56;17.50;99.90
12726;DHT22;6427;49.754;6.106;2023-07-08T04:52:24;17.40;99.90
12726;DHT22;6427;49.754;6.106;2023-07-08T04:54:52;17.40;99.90
12726;DHT22;6427;49.754;6.106;2023-07-08T04:57:19;17.40;99.90
12726;DHT22;6427;49.754;6.106;2023-07-08T04:59:47;17.40;99.90
12726;DHT22;6427;49.754;6.106;2023-07-08T05:02:14;17.60;99.90
12726;DHT22;6427;49.754;6.106;2023-07-08T05:04:42;17.60;99.90
12726;DHT22;6427;49.754;6.106;2023-07-08T05:07:10;17.60;99.90
12726;DHT22;6427;49.754;6.106;2023-07-08T05:09:37;17.60;99.90
12726;DHT22;6427;49.754;6.106;2023-07-08T05:12:06;17.60;99.90
12726;DHT22;6427;49.754;6.106;2023-07-08T05:14:34;17.60;99.90
12726;DHT22;6427;49.754;6.106;2023-07-08T05:17:01;17.60;99.90
12726;DHT22;6427;49.754;6.106;2023-07-08T05:19:29;17.60;99.90
12726;DHT22;6427;49.754;6.106;2023-07-08T05:21:56;17.70;99.90
12726;DHT22;6427;49.754;6.106;2023-07-08T05:24:24;17.80;99.90
12726;DHT22;6427;49.754;6.106;2023-07-08T05:26:52;17.90;99.90
12726;DHT22;6427;49.754;6.106;2023-07-08T05:29:20;17.90;99.90
12726;DHT22;6427;49.754;6.106;2023-07-08T05:31:48;18.00;99.90
12726;DHT22;6427;49.754;6.106;2023-07-08T05:34:15;18.10;99.90
12726;DHT22;6427;49.754;6.106;2023-07-08T05:36:44;18.30;99.90
12726;DHT22;6427;49.754;6.106;2023-07-08T05:39:12;18.30;99.90
12726;DHT22;6427;49.754;6.106;2023-07-08T05:41:39;18.30;99.90
12726;DHT22;6427;49.754;6.106;2023-07-08T05:44:07;18.40;99.90
12726;DHT22;6427;49.754;6.106;2023-07-08T05:46:34;18.50;99.90
12726;DHT22;6427;49.754;6.106;2023-07-08T05:49:02;18.60;99.90
12726;DHT22;6427;49.754;6.106;2023-07-08T05:51:29;18.60;99.90
12726;DHT22;6427;49.754;6.106;2023-07-08T05:53:57;18.90;99.90
12726;DHT22;6427;49.754;6.106;2023-07-08T05:56:25;19.00;99.90
12726;DHT22;6427;49.754;6.106;2023-07-08T05:58:52;19.00;99.90
12726;DHT22;6427;49.754;6.106;2023-07-08T06:01:20;19.10;99.90
12726;DHT22;6427;49.754;6.106;2023-07-08T06:03:48;19.10;99.90
12726;DHT22;6427;49.754;6.106;2023-07-08T06:06:15;19.20;99.90
12726;DHT22;6427;49.754;6.106;2023-07-08T06:08:43;19.50;99.90
12726;DHT22;6427;49.754;6.106;2023-07-08T06:11:11;19.50;99.90
12726;DHT22;6427;49.754;6.106;2023-07-08T06:13:39;19.60;99.90
12726;DHT22;6427;49.754;6.106;2023-07-08T06:16:08;19.70;99.90
12726;DHT22;6427;49.754;6.106;2023-07-08T06:18:35;19.70;99.90
12726;DHT22;6427;49.754;6.106;2023-07-08T06:21:03;19.80;99.90
12726;DHT22;6427;49.754;6.106;2023-07-08T06:23:31;19.90;99.90
12726;DHT22;6427;49.754;6.106;2023-07-08T06:25:59;20.10;99.90
12726;DHT22;6427;49.754;6.106;2023-07-08T06:28:26;20.10;99.90
12726;DHT22;6427;49.754;6.106;2023-07-08T06:30:54;20.20;99.90
12726;DHT22;6427;49.754;6.106;2023-07-08T06:33:22;20.30;99.90
12726;DHT22;6427;49.754;6.106;2023-07-08T06:35:49;20.40;99.90
12726;DHT22;6427;49.754;6.106;2023-07-08T06:38:17;20.50;99.90
12726;DHT22;6427;49.754;6.106;2023-07-08T06:40:44;20.90;99.60
12726;DHT22;6427;49.754;6.106;2023-07-08T06:43:12;20.90;99.10
12726;DHT22;6427;49.754;6.106;2023-07-08T06:45:40;21.00;99.00
12726;DHT22;6427;49.754;6.106;2023-07-08T06:48:07;21.10;98.90
12726;DHT22;6427;49.754;6.106;2023-07-08T06:50:35;21.20;98.80
12726;DHT22;6427;49.754;6.106;2023-07-08T06:53:02;21.30;98.60
12726;DHT22;6427;49.754;6.106;2023-07-08T06:55:30;21.40;98.30
12726;DHT22;6427;49.754;6.106;2023-07-08T06:57:58;21.70;97.90
12726;DHT22;6427;49.754;6.106;2023-07-08T07:00:27;21.80;97.40
12726;DHT22;6427;49.754;6.106;2023-07-08T07:02:54;21.70;97.40
12726;DHT22;6427;49.754;6.106;2023-07-08T07:05:22;22.10;96.70
12726;DHT22;6427;49.754;6.106;2023-07-08T07:07:50;22.20;96.10
12726;DHT22;6427;49.754;6.106;2023-07-08T07:10:17;22.30;95.50
12726;DHT22;6427;49.754;6.106;2023-07-08T07:12:45;22.50;94.70
12726;DHT22;6427;49.754;6.106;2023-07-08T07:15:13;22.50;94.50
12726;DHT22;6427;49.754;6.106;2023-07-08T07:17:41;22.60;94.30
12726;DHT22;6427;49.754;6.106;2023-07-08T07:20:08;22.80;93.90
12726;DHT22;6427;49.754;6.106;2023-07-08T07:22:36;22.90;93.40
12726;DHT22;6427;49.754;6.106;2023-07-08T07:25:03;23.20;92.90
12726;DHT22;6427;49.754;6.106;2023-07-08T07:27:31;23.30;92.40
12726;DHT22;6427;49.754;6.106;2023-07-08T07:29:59;23.30;91.90
12726;DHT22;6427;49.754;6.106;2023-07-08T07:32:26;23.50;91.50
12726;DHT22;6427;49.754;6.106;2023-07-08T07:34:55;23.60;90.80
12726;DHT22;6427;49.754;6.106;2023-07-08T07:37:22;23.60;90.80
12726;DHT22;6427;49.754;6.106;2023-07-08T07:39:50;23.70;90.60
12726;DHT22;6427;49.754;6.106;2023-07-08T07:42:18;23.90;90.50
12726;DHT22;6427;49.754;6.106;2023-07-08T07:44:45;24.00;90.20
12726;DHT22;6427;49.754;6.106;2023-07-08T07:47:13;24.20;89.00
12726;DHT22;6427;49.754;6.106;2023-07-08T07:49:40;24.30;87.20
12726;DHT22;6427;49.754;6.106;2023-07-08T07:52:08;24.40;85.50
12726;DHT22;6427;49.754;6.106;2023-07-08T07:54:36;24.70;81.90
12726;DHT22;6427;49.754;6.106;2023-07-08T07:57:04;24.90;80.10
12726;DHT22;6427;49.754;6.106;2023-07-08T07:59:31;24.90;80.10
12726;DHT22;6427;49.754;6.106;2023-07-08T08:01:59;25.10;79.80
12726;DHT22;6427;49.754;6.106;2023-07-08T08:04:27;25.60;75.90
12726;DHT22;6427;49.754;6.106;2023-07-08T08:06:55;25.60;75.00
12726;DHT22;6427;49.754;6.106;2023-07-08T08:09:23;25.70;74.30
12726;DHT22;6427;49.754;6.106;2023-07-08T08:11:50;25.80;73.50
12726;DHT22;6427;49.754;6.106;2023-07-08T08:14:18;25.80;72.60
12726;DHT22;6427;49.754;6.106;2023-07-08T08:16:46;26.00;71.50
12726;DHT22;6427;49.754;6.106;2023-07-08T08:19:14;25.90;71.40
12726;DHT22;6427;49.754;6.106;2023-07-08T08:21:41;26.00;71.00
12726;DHT22;6427;49.754;6.106;2023-07-08T08:24:09;26.10;70.60
12726;DHT22;6427;49.754;6.106;2023-07-08T08:26:36;26.10;70.40
12726;DHT22;6427;49.754;6.106;2023-07-08T08:29:04;26.10;70.10
12726;DHT22;6427;49.754;6.106;2023-07-08T08:31:32;26.20;69.90
12726;DHT22;6427;49.754;6.106;2023-07-08T08:33:59;26.30;69.40
12726;DHT22;6427;49.754;6.106;2023-07-08T08:36:27;26.40;69.20
12726;DHT22;6427;49.754;6.106;2023-07-08T08:38:55;26.50;68.30
12726;DHT22;6427;49.754;6.106;2023-07-08T08:41:29;26.60;67.90
12726;DHT22;6427;49.754;6.106;2023-07-08T08:43:53;26.70;67.40
12726;DHT22;6427;49.754;6.106;2023-07-08T08:46:34;27.00;66.00
12726;DHT22;6427;49.754;6.106;2023-07-08T08:49:05;27.10;65.40
12726;DHT22;6427;49.754;6.106;2023-07-08T08:51:30;27.40;63.20
12726;DHT22;6427;49.754;6.106;2023-07-08T08:53:58;27.60;62.40
12726;DHT22;6427;49.754;6.106;2023-07-08T08:56:31;27.60;62.40
12726;DHT22;6427;49.754;6.106;2023-07-08T08:59:18;27.70;61.90
12726;DHT22;6427;49.754;6.106;2023-07-08T09:01:42;27.80;61.60
12726;DHT22;6427;49.754;6.106;2023-07-08T09:04:15;27.90;61.50
12726;DHT22;6427;49.754;6.106;2023-07-08T09:06:38;27.80;61.40
12726;DHT22;6427;49.754;6.106;2023-07-08T09:09:09;28.00;61.40
12726;DHT22;6427;49.754;6.106;2023-07-08T09:14:01;28.20;59.80
12726;DHT22;6427;49.754;6.106;2023-07-08T09:19:25;28.50;59.10
12726;DHT22;6427;49.754;6.106;2023-07-08T09:21:53;28.60;58.60
12726;DHT22;6427;49.754;6.106;2023-07-08T09:24:43;28.70;58.50
12726;DHT22;6427;49.754;6.106;2023-07-08T09:26:46;28.70;58.70
12726;DHT22;6427;49.754;6.106;2023-07-08T09:29:14;28.70;58.60
12726;DHT22;6427;49.754;6.106;2023-07-08T09:31:42;28.70;58.70
12726;DHT22;6427;49.754;6.106;2023-07-08T09:34:13;28.80;58.80
12726;DHT22;6427;49.754;6.106;2023-07-08T09:36:44;28.80;58.50
12726;DHT22;6427;49.754;6.106;2023-07-08T09:39:11;28.90;58.30
12726;DHT22;6427;49.754;6.106;2023-07-08T09:41:38;28.90;58.10
12726;DHT22;6427;49.754;6.106;2023-07-08T09:44:20;28.90;57.80
12726;DHT22;6427;49.754;6.106;2023-07-08T09:46:43;29.10;58.30
12726;DHT22;6427;49.754;6.106;2023-07-08T09:49:23;29.00;58.10
12726;DHT22;6427;49.754;6.106;2023-07-08T09:51:47;29.20;58.10
12726;DHT22;6427;49.754;6.106;2023-07-08T09:54:14;29.30;57.80
12726;DHT22;6427;49.754;6.106;2023-07-08T09:56:42;29.30;57.40
12726;DHT22;6427;49.754;6.106;2023-07-08T09:59:13;29.50;56.30
12726;DHT22;6427;49.754;6.106;2023-07-08T10:01:41;29.50;56.30
12726;DHT22;6427;49.754;6.106;2023-07-08T10:04:09;29.50;56.40
12726;DHT22;6427;49.754;6.106;2023-07-08T10:06:37;29.50;56.40
12726;DHT22;6427;49.754;6.106;2023-07-08T10:09:05;29.60;56.50
12726;DHT22;6427;49.754;6.106;2023-07-08T10:11:37;29.90;56.00
12726;DHT22;6427;49.754;6.106;2023-07-08T10:14:17;29.90;55.90
12726;DHT22;6427;49.754;6.106;2023-07-08T10:16:31;30.00;55.60
12726;DHT22;6427;49.754;6.106;2023-07-08T10:18:58;30.10;55.40
12726;DHT22;6427;49.754;6.106;2023-07-08T10:21:45;30.40;54.30
12726;DHT22;6427;49.754;6.106;2023-07-08T10:24:51;30.40;54.30
12726;DHT22;6427;49.754;6.106;2023-07-08T10:27:22;30.40;54.10
12726;DHT22;6427;49.754;6.106;2023-07-08T10:30:11;30.50;53.30
12726;DHT22;6427;49.754;6.106;2023-07-08T10:35:32;30.50;53.50
12726;DHT22;6427;49.754;6.106;2023-07-08T10:40:58;30.70;53.70
12726;DHT22;6427;49.754;6.106;2023-07-08T10:46:20;30.70;53.80
12726;DHT22;6427;49.754;6.106;2023-07-08T10:51:41;31.00;54.00
12726;DHT22;6427;49.754;6.106;2023-07-08T10:56:59;31.10;54.00
12726;DHT22;6427;49.754;6.106;2023-07-08T11:02:36;31.20;53.80
12726;DHT22;6427;49.754;6.106;2023-07-08T11:07:44;31.50;53.30
12726;DHT22;6427;49.754;6.106;2023-07-08T11:10:14;31.50;53.60
12726;DHT22;6427;49.754;6.106;2023-07-08T11:12:49;31.50;53.50
12726;DHT22;6427;49.754;6.106;2023-07-08T11:15:21;31.50;53.70
12726;DHT22;6427;49.754;6.106;2023-07-08T11:17:59;31.60;54.00
12726;DHT22;6427;49.754;6.106;2023-07-08T11:20:36;31.70;53.90
12726;DHT22;6427;49.754;6.106;2023-07-08T11:23:31;31.70;53.40
12726;DHT22;6427;49.754;6.106;2023-07-08T11:28:46;31.80;53.70
12726;DHT22;6427;49.754;6.106;2023-07-08T11:31:14;31.80;53.70
12726;DHT22;6427;49.754;6.106;2023-07-08T11:33:42;31.80;53.70
12726;DHT22;6427;49.754;6.106;2023-07-08T11:36:09;31.90;54.00
12726;DHT22;6427;49.754;6.106;2023-07-08T11:38:37;32.10;53.70
12726;DHT22;6427;49.754;6.106;2023-07-08T11:41:11;32.20;53.40
12726;DHT22;6427;49.754;6.106;2023-07-08T11:43:55;32.30;53.20
12726;DHT22;6427;49.754;6.106;2023-07-08T11:46:21;32.30;52.70
12726;DHT22;6427;49.754;6.106;2023-07-08T11:48:50;32.60;51.50
12726;DHT22;6427;49.754;6.106;2023-07-08T11:51:18;32.60;51.50
12726;DHT22;6427;49.754;6.106;2023-07-08T11:53:48;32.60;51.30
12726;DHT22;6427;49.754;6.106;2023-07-08T12:03:54;32.90;51.40
12726;DHT22;6427;49.754;6.106;2023-07-08T12:08:55;33.10;50.50
12726;DHT22;6427;49.754;6.106;2023-07-08T12:11:32;33.20;49.90
12726;DHT22;6427;49.754;6.106;2023-07-08T12:13:59;33.20;49.40
12726;DHT22;6427;49.754;6.106;2023-07-08T12:16:27;33.40;49.20
12726;DHT22;6427;49.754;6.106;2023-07-08T12:18:55;33.30;49.20
12726;DHT22;6427;49.754;6.106;2023-07-08T12:21:23;33.50;49.00
12726;DHT22;6427;49.754;6.106;2023-07-08T12:23:51;33.50;49.00
12726;DHT22;6427;49.754;6.106;2023-07-08T12:26:18;33.40;49.10
12726;DHT22;6427;49.754;6.106;2023-07-08T12:28:46;33.30;48.80
12726;DHT22;6427;49.754;6.106;2023-07-08T12:31:17;33.20;47.60
12726;DHT22;6427;49.754;6.106;2023-07-08T12:33:44;33.20;47.90
12726;DHT22;6427;49.754;6.106;2023-07-08T12:36:13;33.20;48.50
12726;DHT22;6427;49.754;6.106;2023-07-08T12:38:42;33.30;48.90
12726;DHT22;6427;49.754;6.106;2023-07-08T12:41:10;33.30;49.00
12726;DHT22;6427;49.754;6.106;2023-07-08T12:43:37;33.40;48.70
12726;DHT22;6427;49.754;6.106;2023-07-08T12:46:04;33.50;48.50
12726;DHT22;6427;49.754;6.106;2023-07-08T12:48:35;33.60;47.70
12726;DHT22;6427;49.754;6.106;2023-07-08T12:51:03;33.70;47.80
12726;DHT22;6427;49.754;6.106;2023-07-08T12:53:30;33.70;48.50
12726;DHT22;6427;49.754;6.106;2023-07-08T12:55:57;33.90;48.00
12726;DHT22;6427;49.754;6.106;2023-07-08T12:58:27;33.80;47.90
12726;DHT22;6427;49.754;6.106;2023-07-08T13:00:54;33.70;47.90
12726;DHT22;6427;49.754;6.106;2023-07-08T13:03:22;33.70;48.20
12726;DHT22;6427;49.754;6.106;2023-07-08T13:05:52;33.80;48.50
12726;DHT22;6427;49.754;6.106;2023-07-08T13:08:20;33.80;48.40
12726;DHT22;6427;49.754;6.106;2023-07-08T13:10:46;33.90;48.80
12726;DHT22;6427;49.754;6.106;2023-07-08T13:13:18;33.90;49.10
12726;DHT22;6427;49.754;6.106;2023-07-08T13:15:41;34.00;48.90
12726;DHT22;6427;49.754;6.106;2023-07-08T13:18:13;34.00;49.00
12726;DHT22;6427;49.754;6.106;2023-07-08T13:20:36;34.10;49.20
12726;DHT22;6427;49.754;6.106;2023-07-08T13:23:05;34.10;49.80
12726;DHT22;6427;49.754;6.106;2023-07-08T13:25:32;34.00;49.20
12726;DHT22;6427;49.754;6.106;2023-07-08T13:28:14;34.00;49.10
12726;DHT22;6427;49.754;6.106;2023-07-08T13:30:30;34.00;49.30
12726;DHT22;6427;49.754;6.106;2023-07-08T13:32:58;34.10;49.40
12726;DHT22;6427;49.754;6.106;2023-07-08T13:35:39;34.40;49.00
12726;DHT22;6427;49.754;6.106;2023-07-08T13:38:12;34.30;48.90
12726;DHT22;6427;49.754;6.106;2023-07-08T13:40:35;34.30;49.00
12726;DHT22;6427;49.754;6.106;2023-07-08T13:43:01;34.20;49.00
12726;DHT22;6427;49.754;6.106;2023-07-08T13:45:30;34.30;49.40
12726;DHT22;6427;49.754;6.106;2023-07-08T13:48:00;34.20;49.50
12726;DHT22;6427;49.754;6.106;2023-07-08T13:50:29;34.10;49.60
12726;DHT22;6427;49.754;6.106;2023-07-08T13:52:56;34.10;49.50
12726;DHT22;6427;49.754;6.106;2023-07-08T13:55:24;34.00;49.40
12726;DHT22;6427;49.754;6.106;2023-07-08T13:57:59;34.10;49.60
12726;DHT22;6427;49.754;6.106;2023-07-08T14:00:28;34.20;49.80
12726;DHT22;6427;49.754;6.106;2023-07-08T14:02:53;34.10;49.60
12726;DHT22;6427;49.754;6.106;2023-07-08T14:05:21;34.20;50.20
12726;DHT22;6427;49.754;6.106;2023-07-08T14:07:48;34.20;50.30
12726;DHT22;6427;49.754;6.106;2023-07-08T14:10:16;34.30;50.60
12726;DHT22;6427;49.754;6.106;2023-07-08T14:12:44;34.60;49.30
12726;DHT22;6427;49.754;6.106;2023-07-08T14:15:13;34.50;49.00
12726;DHT22;6427;49.754;6.106;2023-07-08T14:17:40;34.50;48.90
12726;DHT22;6427;49.754;6.106;2023-07-08T14:20:09;34.50;49.40
12726;DHT22;6427;49.754;6.106;2023-07-08T14:22:36;34.50;49.60
12726;DHT22;6427;49.754;6.106;2023-07-08T14:25:07;34.60;49.20
12726;DHT22;6427;49.754;6.106;2023-07-08T14:27:34;34.80;48.80
12726;DHT22;6427;49.754;6.106;2023-07-08T14:30:01;34.80;48.50
12726;DHT22;6427;49.754;6.106;2023-07-08T14:32:30;35.10;48.00
12726;DHT22;6427;49.754;6.106;2023-07-08T14:34:59;35.40;47.30
12726;DHT22;6427;49.754;6.106;2023-07-08T14:37:26;35.50;47.40
12726;DHT22;6427;49.754;6.106;2023-07-08T14:39:54;35.50;47.20
12726;DHT22;6427;49.754;6.106;2023-07-08T14:42:22;35.50;47.60
12726;DHT22;6427;49.754;6.106;2023-07-08T14:44:49;35.60;47.70
12726;DHT22;6427;49.754;6.106;2023-07-08T14:49:54;35.60;47.20
12726;DHT22;6427;49.754;6.106;2023-07-08T14:52:21;35.60;47.60
12726;DHT22;6427;49.754;6.106;2023-07-08T14:54:49;35.60;47.20
12726;DHT22;6427;49.754;6.106;2023-07-08T14:57:17;35.60;47.10
12726;DHT22;6427;49.754;6.106;2023-07-08T14:59:44;35.60;47.00
12726;DHT22;6427;49.754;6.106;2023-07-08T15:02:16;35.60;46.60
12726;DHT22;6427;49.754;6.106;2023-07-08T15:04:39;35.70;46.10
12726;DHT22;6427;49.754;6.106;2023-07-08T15:07:07;35.80;45.90
12726;DHT22;6427;49.754;6.106;2023-07-08T15:09:35;35.80;45.40
12726;DHT22;6427;49.754;6.106;2023-07-08T15:12:03;36.10;44.50
12726;DHT22;6427;49.754;6.106;2023-07-08T15:14:31;36.10;43.80
12726;DHT22;6427;49.754;6.106;2023-07-08T15:16:58;36.20;43.30
12726;DHT22;6427;49.754;6.106;2023-07-08T15:19:26;36.20;43.30
12726;DHT22;6427;49.754;6.106;2023-07-08T15:21:54;36.20;43.00
12726;DHT22;6427;49.754;6.106;2023-07-08T15:24:21;36.40;42.80
12726;DHT22;6427;49.754;6.106;2023-07-08T15:26:49;36.40;42.50
12726;DHT22;6427;49.754;6.106;2023-07-08T15:29:20;36.50;42.40
12726;DHT22;6427;49.754;6.106;2023-07-08T15:31:50;36.60;41.40
12726;DHT22;6427;49.754;6.106;2023-07-08T15:34:21;36.90;40.20
12726;DHT22;6427;49.754;6.106;2023-07-08T15:36:50;37.00;40.20
12726;DHT22;6427;49.754;6.106;2023-07-08T15:39:19;37.00;39.80
12726;DHT22;6427;49.754;6.106;2023-07-08T15:41:46;36.90;39.70
12726;DHT22;6427;49.754;6.106;2023-07-08T15:44:14;37.10;39.20
12726;DHT22;6427;49.754;6.106;2023-07-08T15:46:46;37.20;40.00
12726;DHT22;6427;49.754;6.106;2023-07-08T15:49:20;37.10;39.60
12726;DHT22;6427;49.754;6.106;2023-07-08T15:51:46;37.20;39.70
12726;DHT22;6427;49.754;6.106;2023-07-08T15:54:14;37.20;39.30
12726;DHT22;6427;49.754;6.106;2023-07-08T15:56:42;37.20;38.90
12726;DHT22;6427;49.754;6.106;2023-07-08T15:59:19;37.30;38.70
12726;DHT22;6427;49.754;6.106;2023-07-08T16:01:43;37.30;38.60
12726;DHT22;6427;49.754;6.106;2023-07-08T16:04:25;37.40;37.30
12726;DHT22;6427;49.754;6.106;2023-07-08T16:06:52;37.50;37.80
12726;DHT22;6427;49.754;6.106;2023-07-08T16:09:19;37.40;37.70
12726;DHT22;6427;49.754;6.106;2023-07-08T16:11:47;37.50;37.90
12726;DHT22;6427;49.754;6.106;2023-07-08T16:14:15;37.50;37.40
12726;DHT22;6427;49.754;6.106;2023-07-08T16:16:42;37.60;35.30
12726;DHT22;6427;49.754;6.106;2023-07-08T16:19:10;37.60;35.80
12726;DHT22;6427;49.754;6.106;2023-07-08T16:21:38;37.60;37.10
12726;DHT22;6427;49.754;6.106;2023-07-08T16:24:05;37.60;37.00
12726;DHT22;6427;49.754;6.106;2023-07-08T16:26:33;37.60;37.30
12726;DHT22;6427;49.754;6.106;2023-07-08T16:29:02;37.60;37.40
12726;DHT22;6427;49.754;6.106;2023-07-08T16:31:30;37.60;36.40
12726;DHT22;6427;49.754;6.106;2023-07-08T16:33:58;37.60;36.50
12726;DHT22;6427;49.754;6.106;2023-07-08T16:36:26;37.50;36.40
12726;DHT22;6427;49.754;6.106;2023-07-08T16:38:54;37.50;36.20